createdAt,value
2022-08-23T00:00:50.276Z,22.10
2022-08-23T00:02:01.873Z,22.90
2022-08-23T00:03:05.272Z,22.90
2022-08-23T00:04:13.057Z,22.90
2022-08-23T00:05:16.400Z,22.90
2022-08-23T00:06:22.893Z,22.90
2022-08-23T00:07:26.590Z,22.80
2022-08-23T00:08:32.882Z,22.80
2022-08-23T00:09:37.007Z,22.80
2022-08-23T00:10:39.670Z,22.20
2022-08-23T00:11:47.469Z,22.80
2022-08-23T00:12:50.924Z,22.80
2022-08-23T00:13:53.977Z,22.80
2022-08-23T00:14:57.893Z,22.80
2022-08-23T00:16:00.948Z,22.80
2022-08-23T00:17:05.494Z,22.80
2022-08-23T00:18:07.864Z,22.80
2022-08-23T00:19:16.593Z,22.80
2022-08-23T00:20:20.879Z,22.80
2022-08-23T00:21:25.153Z,22.80
2022-08-23T00:22:27.959Z,22.80
2022-08-23T00:23:31.308Z,22.80
2022-08-23T00:24:39.248Z,22.90
2022-08-23T00:25:43.296Z,22.90
2022-08-23T00:26:55.900Z,22.80
2022-08-23T00:27:58.485Z,22.90
2022-08-23T00:29:01.877Z,22.90
2022-08-23T00:30:09.748Z,23.00
2022-08-23T00:31:12.151Z,22.90
2022-08-23T00:32:21.159Z,23.00
2022-08-23T00:33:23.506Z,23.00
2022-08-23T00:34:29.016Z,23.00
2022-08-23T00:35:32.143Z,23.00
2022-08-23T00:36:35.844Z,23.00
2022-08-23T00:37:39.018Z,22.30
2022-08-23T00:38:42.878Z,23.00
2022-08-23T00:39:45.811Z,23.00
2022-08-23T00:40:53.039Z,22.00
2022-08-23T00:42:00.106Z,23.00
2022-08-23T00:43:25.474Z,23.00
2022-08-23T00:44:51.334Z,23.10
2022-08-23T00:46:26.872Z,23.10
2022-08-23T00:47:43.044Z,23.10
2022-08-23T00:48:49.389Z,23.20
2022-08-23T00:50:05.361Z,23.10
2022-08-23T00:51:41.333Z,23.10
2022-08-23T00:53:04.848Z,23.20
2022-08-23T00:54:14.003Z,23.20
2022-08-23T00:55:17.447Z,23.10
2022-08-23T00:56:25.173Z,23.70
2022-08-23T00:57:33.874Z,23.20
2022-08-23T00:58:37.112Z,23.20
2022-08-23T00:59:43.956Z,23.10
2022-08-23T01:00:46.588Z,23.10
2022-08-23T01:01:51.304Z,23.00
2022-08-23T01:02:55.167Z,23.10
2022-08-23T01:04:04.637Z,23.00
2022-08-23T01:05:10.100Z,23.00
2022-08-23T01:06:17.610Z,23.00
2022-08-23T01:07:35.222Z,23.00
2022-08-23T01:08:45.666Z,22.90
2022-08-23T01:09:51.835Z,22.90
2022-08-23T01:11:04.604Z,22.90
2022-08-23T01:12:31.080Z,22.90
2022-08-23T01:13:46.243Z,22.80
2022-08-23T01:14:57.562Z,22.80
2022-08-23T01:16:08.923Z,22.70
2022-08-23T01:17:19.411Z,22.60
2022-08-23T01:18:27.738Z,22.60
2022-08-23T01:19:35.567Z,22.50
2022-08-23T01:20:49.612Z,22.50
2022-08-23T01:22:01.178Z,22.50
2022-08-23T01:23:11.466Z,22.50
2022-08-23T01:24:18.066Z,22.40
2022-08-23T01:25:34.103Z,22.40
2022-08-23T01:26:37.307Z,22.40
2022-08-23T01:27:42.159Z,22.40
2022-08-23T01:28:49.464Z,22.30
2022-08-23T01:29:52.322Z,21.90
2022-08-23T01:30:58.944Z,22.30
2022-08-23T01:32:01.600Z,22.20
2022-08-23T01:33:08.657Z,22.20
2022-08-23T01:34:13.886Z,22.20
2022-08-23T01:35:18.509Z,22.10
2022-08-23T01:36:22.139Z,22.20
2022-08-23T01:37:30.052Z,22.20
2022-08-23T01:38:34.668Z,22.10
2022-08-23T01:39:38.803Z,22.20
2022-08-23T01:40:45.571Z,22.20
2022-08-23T01:41:48.162Z,22.30
2022-08-23T01:42:51.906Z,22.30
2022-08-23T01:43:54.461Z,22.30
2022-08-23T01:45:01.430Z,22.30
2022-08-23T01:46:10.969Z,21.40
2022-08-23T01:47:13.865Z,22.30
2022-08-23T01:48:18.825Z,22.40
2022-08-23T01:49:21.746Z,22.30
2022-08-23T01:50:26.960Z,22.40
2022-08-23T01:51:30.141Z,22.30
2022-08-23T01:52:35.576Z,22.40
2022-08-23T01:53:38.144Z,22.40
2022-08-23T01:54:43.583Z,22.30
2022-08-23T01:55:46.186Z,22.30
2022-08-23T01:56:49.940Z,22.30
2022-08-23T01:57:55.833Z,22.30
2022-08-23T01:59:02.197Z,22.30
2022-08-23T02:00:09.968Z,22.30
2022-08-23T02:01:17.176Z,22.20
2022-08-23T02:02:19.905Z,22.20
2022-08-23T02:03:26.376Z,22.20
2022-08-23T02:04:29.566Z,22.10
2022-08-23T02:05:33.664Z,22.10
2022-08-23T02:06:35.956Z,22.10
2022-08-23T02:07:40.737Z,22.10
2022-08-23T02:09:03.603Z,22.10
2022-08-23T02:10:11.993Z,22.10
2022-08-23T02:11:17.501Z,22.10
2022-08-23T02:12:23.337Z,22.10
2022-08-23T02:13:35.591Z,22.10
2022-08-23T02:14:42.251Z,22.00
2022-08-23T02:15:53.077Z,22.00
2022-08-23T02:17:03.411Z,22.00
2022-08-23T02:18:07.781Z,22.00
2022-08-23T02:19:16.207Z,22.00
2022-08-23T02:20:19.913Z,22.00
2022-08-23T02:21:24.258Z,22.00
2022-08-23T02:22:27.816Z,22.50
2022-08-23T02:23:30.739Z,22.00
2022-08-23T02:24:34.914Z,22.00
2022-08-23T02:25:40.520Z,22.00
2022-08-23T02:26:49.672Z,22.00
2022-08-23T02:28:00.600Z,22.00
2022-08-23T02:29:03.818Z,22.00
2022-08-23T02:30:08.502Z,22.00
2022-08-23T02:33:21.917Z,21.10
2022-08-23T02:34:28.707Z,21.90
2022-08-23T02:35:33.525Z,21.80
2022-08-23T02:36:35.883Z,21.80
2022-08-23T02:37:39.632Z,21.80
2022-08-23T02:38:42.809Z,21.00
2022-08-23T02:39:46.966Z,21.90
2022-08-23T02:40:52.945Z,21.90
2022-08-23T02:42:04.844Z,21.90
2022-08-23T02:43:12.271Z,21.80
2022-08-23T02:44:16.057Z,22.00
2022-08-23T02:45:18.492Z,22.00
2022-08-23T02:46:24.959Z,22.00
2022-08-23T02:47:28.308Z,22.00
2022-08-23T02:48:46.592Z,22.00
2022-08-23T02:49:50.088Z,22.00
2022-08-23T02:50:53.475Z,22.00
2022-08-23T02:51:56.103Z,22.20
2022-08-23T02:52:59.852Z,22.00
2022-08-23T02:54:03.247Z,21.90
2022-08-23T02:55:08.630Z,21.90
2022-08-23T02:56:21.233Z,22.00
2022-08-23T02:57:24.460Z,21.90
2022-08-23T02:58:30.068Z,22.00
2022-08-23T02:59:32.781Z,21.90
2022-08-23T03:00:36.482Z,21.90
2022-08-23T03:01:40.816Z,22.00
2022-08-23T03:03:04.625Z,22.00
2022-08-23T03:04:10.266Z,22.00
2022-08-23T03:05:18.219Z,22.00
2022-08-23T03:06:24.838Z,22.00
2022-08-23T03:07:30.308Z,22.10
2022-08-23T03:08:33.101Z,22.10
2022-08-23T03:09:36.725Z,22.10
2022-08-23T03:10:43.497Z,22.10
2022-08-23T03:11:51.223Z,22.10
2022-08-23T03:12:56.088Z,22.10
2022-08-23T03:14:01.313Z,22.10
2022-08-23T03:15:06.917Z,22.00
2022-08-23T03:16:11.993Z,22.00
2022-08-23T03:17:21.063Z,22.00
2022-08-23T03:18:25.124Z,21.90
2022-08-23T03:19:27.962Z,22.00
2022-08-23T03:20:31.802Z,21.90
2022-08-23T03:21:34.527Z,21.90
2022-08-23T03:22:40.792Z,22.00
2022-08-23T03:23:51.093Z,22.00
2022-08-23T03:24:54.351Z,22.00
2022-08-23T03:26:05.555Z,22.00
2022-08-23T03:27:12.753Z,22.10
2022-08-23T03:28:16.899Z,21.20
2022-08-23T03:29:21.650Z,22.10
2022-08-23T03:30:35.226Z,22.10
2022-08-23T03:31:40.140Z,22.10
2022-08-23T03:32:49.035Z,22.10
2022-08-23T03:33:54.296Z,22.10
2022-08-23T03:34:56.970Z,22.10
2022-08-23T03:36:01.585Z,22.10
2022-08-23T03:37:06.446Z,22.20
2022-08-23T03:38:10.609Z,22.10
2022-08-23T03:39:14.836Z,22.20
2022-08-23T03:40:17.511Z,22.20
2022-08-23T03:41:21.286Z,22.20
2022-08-23T03:42:25.875Z,22.20
2022-08-23T03:43:34.825Z,22.20
2022-08-23T03:44:37.353Z,22.20
2022-08-23T03:45:40.584Z,22.20
2022-08-23T03:46:45.560Z,22.20
2022-08-23T03:47:48.030Z,22.30
2022-08-23T03:48:52.738Z,22.30
2022-08-23T03:49:57.005Z,22.30
2022-08-23T03:51:00.750Z,22.40
2022-08-23T03:52:04.333Z,22.40
2022-08-23T03:53:09.159Z,22.40
2022-08-23T03:54:15.636Z,22.40
2022-08-23T03:55:21.053Z,22.50
2022-08-23T03:56:27.102Z,22.40
2022-08-23T03:57:32.224Z,22.40
2022-08-23T03:58:35.371Z,22.40
2022-08-23T03:59:42.682Z,22.50
2022-08-23T04:00:47.125Z,22.50
2022-08-23T04:01:51.142Z,22.50
2022-08-23T04:02:53.956Z,22.50
2022-08-23T04:04:00.406Z,22.50
2022-08-23T04:05:06.202Z,22.50
2022-08-23T04:06:21.351Z,22.60
2022-08-23T04:07:23.959Z,22.50
2022-08-23T04:08:33.550Z,22.50
2022-08-23T04:09:37.892Z,22.60
2022-08-23T04:10:42.083Z,22.40
2022-08-23T04:11:46.045Z,22.60
2022-08-23T04:12:55.179Z,22.60
2022-08-23T04:13:57.839Z,22.60
2022-08-23T04:15:02.747Z,22.70
2022-08-23T04:16:09.251Z,22.80
2022-08-23T04:17:14.102Z,22.90
2022-08-23T04:18:16.739Z,22.90
2022-08-23T04:19:20.397Z,23.00
2022-08-23T04:20:37.152Z,23.10
2022-08-23T04:21:49.294Z,23.20
2022-08-23T04:22:52.571Z,23.30
2022-08-23T04:23:56.644Z,23.50
2022-08-23T04:24:59.918Z,23.40
2022-08-23T04:26:03.754Z,23.40
2022-08-23T04:27:09.698Z,23.40
2022-08-23T04:28:13.724Z,23.40
2022-08-23T04:29:33.807Z,23.30
2022-08-23T04:30:39.557Z,23.30
2022-08-23T04:31:43.544Z,23.20
2022-08-23T04:32:46.558Z,23.20
2022-08-23T04:33:53.092Z,23.20
2022-08-23T04:34:57.745Z,23.10
2022-08-23T04:36:03.152Z,23.10
2022-08-23T04:37:09.377Z,23.10
2022-08-23T04:38:24.498Z,23.00
2022-08-23T04:39:51.647Z,23.00
2022-08-23T04:41:15.920Z,22.90
2022-08-23T04:42:23.451Z,22.90
2022-08-23T04:43:28.589Z,22.80
2022-08-23T04:44:32.186Z,22.80
2022-08-23T04:45:39.434Z,22.70
2022-08-23T04:46:46.361Z,22.70
2022-08-23T04:47:49.163Z,22.60
2022-08-23T04:48:54.172Z,22.70
2022-08-23T04:49:57.697Z,22.70
2022-08-23T04:51:01.287Z,22.70
2022-08-23T04:52:07.300Z,22.80
2022-08-23T04:53:11.945Z,22.80
2022-08-23T04:54:25.055Z,22.90
2022-08-23T04:55:52.314Z,22.80
2022-08-23T04:56:56.771Z,22.90
2022-08-23T04:57:59.817Z,23.00
2022-08-23T04:59:10.204Z,23.80
2022-08-23T05:00:19.337Z,23.90
2022-08-23T05:01:28.109Z,23.10
2022-08-23T05:02:32.496Z,23.10
2022-08-23T05:03:38.268Z,23.10
2022-08-23T05:04:42.696Z,23.10
2022-08-23T05:05:45.516Z,23.20
2022-08-23T05:06:49.772Z,23.20
2022-08-23T05:07:52.273Z,23.20
2022-08-23T05:08:55.944Z,23.20
2022-08-23T05:09:59.088Z,23.30
2022-08-23T05:11:04.749Z,23.10
2022-08-23T05:12:07.687Z,23.30
2022-08-23T05:13:11.800Z,23.20
2022-08-23T05:14:16.508Z,23.10
2022-08-23T05:15:19.837Z,23.00
2022-08-23T05:16:27.935Z,22.90
2022-08-23T05:17:37.266Z,22.90
2022-08-23T05:18:42.634Z,22.90
2022-08-23T05:19:47.303Z,22.90
2022-08-23T05:20:51.579Z,22.90
2022-08-23T05:21:57.221Z,22.90
2022-08-23T05:23:10.267Z,22.90
2022-08-23T05:24:40.000Z,23.00
2022-08-23T05:25:52.520Z,23.30
2022-08-23T05:27:13.840Z,23.20
2022-08-23T05:28:18.144Z,23.40
2022-08-23T05:29:23.035Z,23.50
2022-08-23T05:30:27.120Z,23.60
2022-08-23T05:31:31.722Z,23.80
2022-08-23T05:32:37.451Z,23.90
2022-08-23T05:33:45.423Z,24.00
2022-08-23T05:34:49.275Z,24.10
2022-08-23T05:35:52.534Z,24.10
2022-08-23T05:36:56.921Z,24.20
2022-08-23T05:38:11.808Z,24.20
2022-08-23T05:39:24.213Z,24.20
2022-08-23T05:40:40.554Z,24.20
2022-08-23T05:41:46.949Z,24.10
2022-08-23T05:42:50.527Z,24.20
2022-08-23T05:43:54.039Z,24.20
2022-08-23T05:44:58.650Z,24.30
2022-08-23T05:46:06.292Z,24.30
2022-08-23T05:47:20.485Z,24.30
2022-08-23T05:48:49.458Z,24.20
2022-08-23T05:49:54.407Z,24.10
2022-08-23T05:50:58.889Z,24.20
2022-08-23T05:52:02.424Z,24.20
2022-08-23T05:53:08.770Z,24.20
2022-08-23T05:54:12.723Z,24.30
2022-08-23T05:55:15.142Z,24.40
2022-08-23T05:56:34.358Z,23.50
2022-08-23T05:57:37.946Z,24.60
2022-08-23T05:58:42.291Z,24.70
2022-08-23T05:59:45.783Z,24.80
2022-08-23T06:00:49.629Z,24.90
2022-08-23T06:01:53.577Z,25.00
2022-08-23T06:02:56.149Z,25.00
2022-08-23T06:04:01.499Z,25.00
2022-08-23T06:05:04.615Z,25.00
2022-08-23T06:06:09.729Z,25.10
2022-08-23T06:07:12.282Z,25.10
2022-08-23T06:08:16.026Z,25.10
2022-08-23T06:09:20.039Z,25.10
2022-08-23T06:10:23.152Z,25.10
2022-08-23T06:11:33.437Z,25.10
2022-08-23T06:12:36.339Z,25.00
2022-08-23T06:13:43.750Z,25.00
2022-08-23T06:14:46.413Z,25.10
2022-08-23T06:15:51.700Z,25.20
2022-08-23T06:16:56.216Z,25.30
2022-08-23T06:18:03.332Z,25.40
2022-08-23T06:19:08.993Z,25.10
2022-08-23T06:20:31.370Z,25.50
2022-08-23T06:21:39.653Z,25.70
2022-08-23T06:22:43.343Z,25.90
2022-08-23T06:23:47.804Z,25.90
2022-08-23T06:24:51.438Z,26.00
2022-08-23T06:25:53.906Z,26.10
2022-08-23T06:26:58.202Z,26.20
2022-08-23T06:28:00.660Z,26.30
2022-08-23T06:29:10.289Z,26.50
2022-08-23T06:30:13.576Z,26.60
2022-08-23T06:31:40.471Z,26.70
2022-08-23T06:32:47.631Z,26.80
2022-08-23T06:34:09.331Z,27.00
2022-08-23T06:35:38.320Z,27.00
2022-08-23T06:37:12.775Z,27.10
2022-08-23T06:38:55.696Z,27.10
2022-08-23T06:40:19.201Z,27.10
2022-08-23T06:41:24.770Z,26.60
2022-08-23T06:42:48.625Z,26.90
2022-08-23T06:43:56.027Z,26.90
2022-08-23T06:45:08.968Z,26.90
2022-08-23T06:46:21.567Z,26.90
2022-08-23T06:47:29.410Z,26.80
2022-08-23T06:48:32.223Z,27.10
2022-08-23T06:49:37.141Z,27.10
2022-08-23T06:50:42.432Z,27.20
2022-08-23T06:52:20.670Z,27.30
2022-08-23T06:53:32.594Z,27.40
2022-08-23T06:54:51.508Z,27.40
2022-08-23T06:56:04.590Z,27.50
2022-08-23T06:57:20.597Z,27.50
2022-08-23T06:58:41.908Z,27.50
2022-08-23T06:59:52.702Z,28.20
2022-08-23T07:01:49.548Z,27.60
2022-08-23T07:03:03.811Z,27.60
2022-08-23T07:04:29.224Z,27.40
2022-08-23T07:05:45.082Z,27.20
2022-08-23T07:07:02.032Z,27.20
2022-08-23T07:08:05.738Z,27.10
2022-08-23T07:09:08.346Z,27.00
2022-08-23T07:10:12.349Z,27.00
2022-08-23T07:11:15.106Z,27.00
2022-08-23T07:12:19.989Z,26.80
2022-08-23T07:13:22.977Z,26.80
2022-08-23T07:14:26.978Z,26.90
2022-08-23T07:15:30.975Z,27.00
2022-08-23T07:16:37.088Z,27.00
2022-08-23T07:17:41.023Z,27.10
2022-08-23T07:18:46.124Z,27.20
2022-08-23T07:19:49.856Z,27.10
2022-08-23T07:20:56.477Z,27.00
2022-08-23T07:22:01.040Z,27.00
2022-08-23T07:23:03.800Z,27.00
2022-08-23T07:24:08.463Z,26.90
2022-08-23T07:25:12.443Z,26.90
2022-08-23T07:26:17.725Z,26.90
2022-08-23T07:27:21.123Z,26.90
2022-08-23T07:28:38.889Z,27.00
2022-08-23T07:29:42.701Z,27.00
2022-08-23T07:30:45.779Z,27.00
2022-08-23T07:31:54.721Z,27.00
2022-08-23T07:32:57.674Z,27.00
2022-08-23T07:34:07.371Z,27.10
2022-08-23T07:35:12.503Z,27.20
2022-08-23T07:36:21.106Z,27.20
2022-08-23T07:37:25.279Z,27.20
2022-08-23T07:38:29.981Z,27.20
2022-08-23T07:39:36.087Z,27.30
2022-08-23T07:40:40.732Z,27.20
2022-08-23T07:41:46.977Z,27.40
2022-08-23T07:42:52.313Z,27.20
2022-08-23T07:43:59.655Z,27.40
2022-08-23T07:45:04.197Z,27.50
2022-08-23T07:46:09.776Z,27.50
2022-08-23T07:47:17.096Z,27.50
2022-08-23T07:48:43.361Z,27.60
2022-08-23T07:49:52.770Z,27.60
2022-08-23T07:50:58.368Z,27.50
2022-08-23T07:52:05.332Z,27.50
2022-08-23T07:53:08.573Z,27.60
2022-08-23T07:54:13.192Z,27.60
2022-08-23T07:55:25.148Z,27.60
2022-08-23T07:56:49.995Z,27.70
2022-08-23T07:58:01.938Z,27.70
2022-08-23T07:59:34.550Z,27.70
2022-08-23T08:01:15.660Z,27.70
2022-08-23T08:02:23.392Z,27.80
2022-08-23T08:03:26.851Z,27.90
2022-08-23T08:04:45.480Z,28.00
2022-08-23T08:05:49.997Z,28.10
2022-08-23T08:07:16.775Z,28.20
2022-08-23T08:08:20.433Z,28.20
2022-08-23T08:09:23.485Z,28.30
2022-08-23T08:10:27.569Z,28.40
2022-08-23T08:11:35.363Z,28.50
2022-08-23T08:12:39.242Z,28.30
2022-08-23T08:13:54.719Z,28.70
2022-08-23T08:14:58.364Z,28.70
2022-08-23T08:16:09.070Z,28.60
2022-08-23T08:17:18.560Z,28.70
2022-08-23T08:18:39.760Z,28.70
2022-08-23T08:20:01.939Z,28.70
2022-08-23T08:21:35.624Z,28.70
2022-08-23T08:22:49.948Z,28.60
2022-08-23T08:24:19.585Z,28.70
2022-08-23T08:25:42.671Z,28.50
2022-08-23T08:26:47.390Z,28.50
2022-08-23T08:27:50.148Z,28.50
2022-08-23T08:28:56.193Z,28.40
2022-08-23T08:29:59.325Z,28.30
2022-08-23T08:31:04.262Z,28.30
2022-08-23T08:32:09.067Z,28.30
2022-08-23T08:33:17.339Z,28.30
2022-08-23T08:34:21.490Z,28.20
2022-08-23T08:35:25.221Z,28.20
2022-08-23T08:36:33.744Z,28.00
2022-08-23T08:37:39.361Z,27.90
2022-08-23T08:38:48.486Z,27.90
2022-08-23T08:39:57.897Z,27.80
2022-08-23T08:41:12.711Z,27.70
2022-08-23T08:42:45.608Z,27.70
2022-08-23T08:44:04.976Z,27.60
2022-08-23T08:45:13.397Z,27.60
2022-08-23T08:46:26.237Z,27.50
2022-08-23T08:47:38.329Z,27.50
2022-08-23T08:48:45.820Z,27.50
2022-08-23T08:49:56.998Z,27.50
2022-08-23T08:51:07.982Z,27.50
2022-08-23T08:52:18.930Z,27.50
2022-08-23T08:53:28.834Z,27.50
2022-08-23T08:54:46.065Z,27.60
2022-08-23T08:55:56.117Z,27.50
2022-08-23T08:57:02.499Z,27.50
2022-08-23T08:58:11.950Z,27.40
2022-08-23T08:59:23.585Z,27.40
2022-08-23T09:00:32.579Z,27.40
2022-08-23T09:01:39.765Z,27.40
2022-08-23T09:02:45.138Z,27.40
2022-08-23T09:03:51.121Z,27.50
2022-08-23T09:04:55.276Z,27.50
2022-08-23T09:06:07.548Z,27.50
2022-08-23T09:07:31.270Z,27.60
2022-08-23T09:08:49.160Z,27.60
2022-08-23T09:10:10.012Z,27.60
2022-08-23T09:11:36.623Z,27.60
2022-08-23T09:12:52.338Z,27.70
2022-08-23T09:14:21.478Z,27.70
2022-08-23T09:15:35.135Z,27.80
2022-08-23T09:16:51.636Z,27.70
2022-08-23T09:17:56.174Z,27.70
2022-08-23T09:19:03.952Z,27.10
2022-08-23T09:20:08.046Z,27.70
2022-08-23T09:21:12.724Z,27.70
2022-08-23T09:22:26.125Z,27.70
2022-08-23T09:23:38.277Z,27.80
2022-08-23T09:24:42.689Z,27.90
2022-08-23T09:25:52.741Z,28.10
2022-08-23T09:26:59.104Z,28.00
2022-08-23T09:28:04.126Z,28.00
2022-08-23T09:29:19.200Z,27.90
2022-08-23T09:30:23.444Z,27.80
2022-08-23T09:31:38.283Z,27.80
2022-08-23T09:32:45.564Z,27.90
2022-08-23T09:33:49.882Z,27.90
2022-08-23T09:35:19.031Z,27.90
2022-08-23T09:36:34.181Z,28.10
2022-08-23T09:37:53.330Z,28.10
2022-08-23T09:38:59.265Z,28.20
2022-08-23T09:40:18.466Z,28.30
2022-08-23T09:41:27.853Z,28.30
2022-08-23T09:42:37.415Z,28.50
2022-08-23T09:43:48.339Z,28.60
2022-08-23T09:44:54.883Z,28.70
2022-08-23T09:46:04.636Z,28.90
2022-08-23T09:47:15.850Z,29.00
2022-08-23T09:48:41.016Z,29.10
2022-08-23T09:49:51.617Z,29.20
2022-08-23T09:50:58.241Z,29.40
2022-08-23T09:52:12.819Z,29.50
2022-08-23T09:53:28.643Z,29.60
2022-08-23T09:54:37.135Z,29.70
2022-08-23T09:55:52.416Z,29.80
2022-08-23T09:56:59.637Z,29.80
2022-08-23T09:58:05.770Z,29.80
2022-08-23T09:59:29.011Z,29.70
2022-08-23T10:00:39.256Z,29.70
2022-08-23T10:01:49.354Z,29.60
2022-08-23T10:02:57.743Z,29.50
2022-08-23T10:04:15.665Z,29.30
2022-08-23T10:05:31.415Z,29.50
2022-08-23T10:06:34.386Z,29.60
2022-08-23T10:07:43.130Z,29.70
2022-08-23T10:08:56.303Z,29.70
2022-08-23T10:10:20.713Z,29.60
2022-08-23T10:11:30.998Z,29.60
2022-08-23T10:12:35.392Z,29.60
2022-08-23T10:13:42.073Z,29.70
2022-08-23T10:14:46.739Z,29.70
2022-08-23T10:16:02.611Z,29.70
2022-08-23T10:17:27.266Z,29.70
2022-08-23T10:18:48.878Z,29.70
2022-08-23T10:20:04.150Z,29.70
2022-08-23T10:21:21.101Z,29.70
2022-08-23T10:22:30.292Z,29.80
2022-08-23T10:24:20.453Z,29.80
2022-08-23T10:25:33.412Z,29.60
2022-08-23T10:26:45.909Z,29.60
2022-08-23T10:28:15.327Z,29.50
2022-08-23T10:29:38.157Z,29.50
2022-08-23T10:30:56.738Z,29.40
2022-08-23T10:32:14.022Z,29.40
2022-08-23T10:33:37.020Z,29.40
2022-08-23T10:34:53.295Z,29.30
2022-08-23T10:36:11.036Z,29.20
2022-08-23T10:37:50.011Z,29.20
2022-08-23T10:39:05.083Z,29.20
2022-08-23T10:40:17.549Z,29.20
2022-08-23T10:41:51.948Z,29.30
2022-08-23T10:43:11.977Z,29.90
2022-08-23T10:44:26.933Z,29.50
2022-08-23T10:45:35.232Z,29.60
2022-08-23T10:46:50.921Z,29.60
2022-08-23T10:48:21.443Z,29.60
2022-08-23T10:49:28.320Z,29.60
2022-08-23T10:50:44.410Z,29.60
2022-08-23T10:52:01.726Z,29.60
2022-08-23T10:53:13.048Z,29.70
2022-08-23T10:54:29.611Z,29.80
2022-08-23T10:55:54.831Z,29.90
2022-08-23T10:57:02.130Z,30.30
2022-08-23T10:58:11.341Z,30.00
2022-08-23T10:59:24.124Z,30.10
2022-08-23T11:00:29.590Z,30.10
2022-08-23T11:01:41.256Z,30.20
2022-08-23T11:02:54.704Z,30.20
2022-08-23T11:04:05.450Z,30.30
2022-08-23T11:05:27.289Z,30.20
2022-08-23T11:06:53.530Z,30.10
2022-08-23T11:08:03.979Z,30.00
2022-08-23T11:09:29.858Z,30.10
2022-08-23T11:10:55.639Z,30.10
2022-08-23T11:12:23.566Z,30.10
2022-08-23T11:13:30.759Z,30.10
2022-08-23T11:14:41.824Z,30.20
2022-08-23T11:15:56.649Z,30.30
2022-08-23T11:17:04.120Z,30.30
2022-08-23T11:18:14.288Z,30.40
2022-08-23T11:19:51.069Z,30.40
2022-08-23T11:21:33.697Z,30.30
2022-08-23T11:23:14.254Z,30.30
2022-08-23T11:24:51.965Z,30.10
2022-08-23T11:25:57.452Z,30.00
2022-08-23T11:27:07.804Z,29.90
2022-08-23T11:28:42.098Z,29.90
2022-08-23T11:29:45.385Z,29.90
2022-08-23T11:31:25.862Z,29.90
2022-08-23T11:32:42.022Z,29.90
2022-08-23T11:33:49.867Z,29.90
2022-08-23T11:35:09.028Z,29.90
2022-08-23T11:36:21.894Z,29.90
2022-08-23T11:37:49.598Z,29.90
2022-08-23T11:39:13.421Z,30.00
2022-08-23T11:40:41.928Z,30.00
2022-08-23T11:42:07.281Z,30.00
2022-08-23T11:43:22.429Z,29.90
2022-08-23T11:44:33.761Z,29.90
2022-08-23T11:45:44.818Z,30.00
2022-08-23T11:47:01.974Z,30.10
2022-08-23T11:48:19.461Z,30.20
2022-08-23T11:49:51.779Z,30.40
2022-08-23T11:51:19.975Z,30.40
2022-08-23T11:52:54.684Z,30.40
2022-08-23T11:54:28.170Z,30.60
2022-08-23T11:56:07.149Z,30.60
2022-08-23T11:57:28.191Z,30.60
2022-08-23T11:58:57.024Z,30.20
2022-08-23T12:00:26.905Z,30.60
2022-08-23T12:01:36.336Z,30.50
2022-08-23T12:02:53.292Z,30.50
2022-08-23T12:04:00.315Z,30.40
2022-08-23T12:05:32.493Z,30.40
2022-08-23T12:06:51.193Z,30.40
2022-08-23T12:08:33.417Z,30.40
2022-08-23T12:09:56.421Z,30.40
2022-08-23T12:11:06.206Z,30.40
2022-08-23T12:12:28.914Z,30.50
2022-08-23T12:13:54.037Z,30.50
2022-08-23T12:14:59.888Z,30.50
2022-08-23T12:16:16.947Z,30.70
2022-08-23T12:17:56.035Z,30.70
2022-08-23T12:19:04.645Z,30.70
2022-08-23T12:20:13.239Z,30.80
2022-08-23T12:21:26.491Z,30.90
2022-08-23T12:22:37.107Z,30.90
2022-08-23T12:23:47.928Z,30.90
2022-08-23T12:24:59.204Z,30.80
2022-08-23T12:26:08.864Z,30.80
2022-08-23T12:27:27.607Z,30.80
2022-08-23T12:28:39.485Z,30.90
2022-08-23T12:29:56.903Z,31.00
2022-08-23T12:31:13.556Z,31.10
2022-08-23T12:32:30.505Z,31.00
2022-08-23T12:33:45.900Z,31.00
2022-08-23T12:35:02.441Z,31.10
2022-08-23T12:36:16.684Z,31.20
2022-08-23T12:37:36.502Z,31.20
2022-08-23T12:38:53.812Z,31.30
2022-08-23T12:40:04.488Z,31.20
2022-08-23T12:41:22.907Z,31.10
2022-08-23T12:42:33.107Z,31.20
2022-08-23T12:43:36.737Z,31.40
2022-08-23T12:44:39.263Z,31.50
2022-08-23T12:45:48.971Z,31.50
2022-08-23T12:46:53.760Z,31.50
2022-08-23T12:48:01.172Z,31.60
2022-08-23T12:49:06.471Z,31.60
2022-08-23T12:50:32.929Z,31.70
2022-08-23T12:51:43.035Z,32.00
2022-08-23T12:52:59.665Z,31.60
2022-08-23T12:54:15.586Z,31.50
2022-08-23T12:55:22.174Z,31.60
2022-08-23T12:56:31.791Z,31.70
2022-08-23T12:57:39.081Z,31.70
2022-08-23T12:58:51.501Z,31.70
2022-08-23T13:00:18.806Z,31.70
2022-08-23T13:01:26.397Z,31.80
2022-08-23T13:02:37.261Z,31.80
2022-08-23T13:03:47.955Z,31.90
2022-08-23T13:04:53.516Z,31.90
2022-08-23T13:06:02.233Z,31.90
2022-08-23T13:07:09.937Z,31.90
2022-08-23T13:08:27.282Z,31.90
2022-08-23T13:09:41.677Z,31.80
2022-08-23T13:10:48.157Z,31.80
2022-08-23T13:11:52.487Z,31.70
2022-08-23T13:12:56.422Z,31.70
2022-08-23T13:14:01.257Z,31.50
2022-08-23T13:15:06.176Z,31.40
2022-08-23T13:16:27.783Z,31.20
2022-08-23T13:17:39.756Z,31.00
2022-08-23T13:18:44.171Z,30.90
2022-08-23T13:19:49.544Z,30.90
2022-08-23T13:21:17.546Z,31.00
2022-08-23T13:22:25.823Z,31.00
2022-08-23T13:23:29.614Z,31.00
2022-08-23T13:24:39.230Z,31.10
2022-08-23T13:25:44.329Z,31.70
2022-08-23T13:26:49.077Z,31.20
2022-08-23T13:27:55.545Z,31.20
2022-08-23T13:29:03.005Z,31.20
2022-08-23T13:30:23.317Z,31.80
2022-08-23T13:31:26.279Z,31.20
2022-08-23T13:32:33.440Z,31.30
2022-08-23T13:33:40.982Z,31.30
2022-08-23T13:34:50.121Z,31.50
2022-08-23T13:36:12.981Z,31.50
2022-08-23T13:37:22.129Z,31.60
2022-08-23T13:38:33.316Z,31.60
2022-08-23T13:39:35.871Z,31.60
2022-08-23T13:40:54.122Z,31.60
2022-08-23T13:42:01.991Z,31.50
2022-08-23T13:43:10.078Z,31.60
2022-08-23T13:44:19.039Z,31.60
2022-08-23T13:45:29.281Z,31.60
2022-08-23T13:46:37.400Z,31.70
2022-08-23T13:47:48.819Z,31.80
2022-08-23T13:48:59.274Z,31.80
2022-08-23T13:50:07.328Z,31.80
2022-08-23T13:51:26.237Z,31.70
2022-08-23T13:52:56.244Z,31.80
2022-08-23T13:53:59.405Z,31.70
2022-08-23T13:55:01.789Z,31.70
2022-08-23T13:56:05.894Z,31.70
2022-08-23T13:57:14.485Z,31.70
2022-08-23T13:58:28.296Z,31.60
2022-08-23T13:59:34.469Z,31.50
2022-08-23T14:00:38.124Z,31.40
2022-08-23T14:01:40.835Z,31.30
2022-08-23T14:02:50.865Z,31.20
2022-08-23T14:03:53.981Z,31.10
2022-08-23T14:04:57.757Z,31.00
2022-08-23T14:06:00.433Z,30.90
2022-08-23T14:07:04.146Z,30.70
2022-08-23T14:08:07.847Z,30.60
2022-08-23T14:09:10.290Z,30.60
2022-08-23T14:10:13.640Z,30.50
2022-08-23T14:11:17.634Z,30.40
2022-08-23T14:12:28.899Z,30.40
2022-08-23T14:13:48.707Z,30.30
2022-08-23T14:14:52.114Z,30.20
2022-08-23T14:15:58.776Z,30.10
2022-08-23T14:17:20.758Z,30.00
2022-08-23T14:18:23.392Z,30.00
2022-08-23T14:20:51.381Z,29.90
2022-08-23T14:21:54.558Z,29.80
2022-08-23T14:22:59.688Z,29.70
2022-08-23T14:24:05.605Z,29.70
2022-08-23T14:25:11.094Z,29.60
2022-08-23T14:26:17.575Z,29.60
2022-08-23T14:27:22.277Z,29.60
2022-08-23T14:28:29.541Z,29.50
2022-08-23T14:29:33.043Z,29.40
2022-08-23T14:30:37.267Z,29.40
2022-08-23T14:31:40.893Z,29.30
2022-08-23T14:32:43.291Z,29.20
2022-08-23T14:33:47.603Z,29.20
2022-08-23T14:34:54.025Z,29.10
2022-08-23T14:35:57.395Z,29.10
2022-08-23T14:38:27.350Z,29.10
2022-08-23T14:39:30.005Z,29.10
2022-08-23T14:40:36.502Z,28.40
2022-08-23T14:41:43.095Z,29.10
2022-08-23T14:42:51.846Z,29.10
2022-08-23T14:44:06.209Z,29.20
2022-08-23T14:45:12.567Z,29.20
2022-08-23T14:46:20.093Z,29.20
2022-08-23T14:47:27.029Z,29.20
2022-08-23T14:48:29.575Z,29.20
2022-08-23T14:49:36.149Z,29.20
2022-08-23T14:50:41.150Z,29.20
2022-08-23T14:51:49.733Z,29.20
2022-08-23T14:52:54.861Z,29.20
2022-08-23T14:53:59.657Z,29.30
2022-08-23T14:55:12.880Z,29.30
2022-08-23T14:56:23.903Z,29.30
2022-08-23T14:57:28.565Z,29.30
2022-08-23T14:58:37.945Z,29.30
2022-08-23T14:59:46.230Z,29.30
2022-08-23T15:00:55.393Z,29.30
2022-08-23T15:02:02.201Z,29.30
2022-08-23T15:03:12.312Z,29.30
2022-08-23T15:04:23.990Z,29.30
2022-08-23T15:05:29.610Z,29.20
2022-08-23T15:06:32.657Z,29.20